sensor_id;sensor_type;location;lat;lon;timestamp;P1;durP1;ratioP1;P2;durP2;ratioP2
77234;SDS011;66253;50.526;14.974;2023-11-19T00:00:19;12.70;;;7.30;;
77234;SDS011;66253;50.526;14.974;2023-11-19T00:02:47;14.50;;;6.90;;
77234;SDS011;66253;50.526;14.974;2023-11-19T00:05:16;14.70;;;7.20;;
77234;SDS011;66253;50.526;14.974;2023-11-19T00:07:44;13.80;;;6.80;;
77234;SDS011;66253;50.526;14.974;2023-11-19T00:10:13;17.70;;;6.30;;
77234;SDS011;66253;50.526;14.974;2023-11-19T00:12:42;13.60;;;6.60;;
77234;SDS011;66253;50.526;14.974;2023-11-19T00:15:11;32.00;;;13.10;;
77234;SDS011;66253;50.526;14.974;2023-11-19T00:17:40;38.30;;;13.50;;
77234;SDS011;66253;50.526;14.974;2023-11-19T00:20:09;22.30;;;8.90;;
77234;SDS011;66253;50.526;14.974;2023-11-19T00:22:38;18.70;;;8.40;;
77234;SDS011;66253;50.526;14.974;2023-11-19T00:25:07;30.30;;;16.50;;
77234;SDS011;66253;50.526;14.974;2023-11-19T00:27:36;30.10;;;12.40;;
77234;SDS011;66253;50.526;14.974;2023-11-19T00:30:05;28.30;;;11.20;;
77234;SDS011;66253;50.526;14.974;2023-11-19T00:32:35;21.00;;;8.60;;
77234;SDS011;66253;50.526;14.974;2023-11-19T00:35:03;19.60;;;8.30;;
77234;SDS011;66253;50.526;14.974;2023-11-19T00:37:32;16.40;;;7.80;;
77234;SDS011;66253;50.526;14.974;2023-11-19T00:40:00;15.10;;;7.10;;
77234;SDS011;66253;50.526;14.974;2023-11-19T00:42:29;13.60;;;6.70;;
77234;SDS011;66253;50.526;14.974;2023-11-19T00:44:58;13.50;;;6.00;;
77234;SDS011;66253;50.526;14.974;2023-11-19T00:47:26;14.20;;;6.90;;
77234;SDS011;66253;50.526;14.974;2023-11-19T00:49:54;13.80;;;6.30;;
77234;SDS011;66253;50.526;14.974;2023-11-19T00:52:23;14.70;;;6.60;;
77234;SDS011;66253;50.526;14.974;2023-11-19T00:54:51;12.30;;;6.20;;
77234;SDS011;66253;50.526;14.974;2023-11-19T00:57:19;13.10;;;6.60;;
77234;SDS011;66253;50.526;14.974;2023-11-19T00:59:47;13.50;;;6.20;;
77234;SDS011;66253;50.526;14.974;2023-11-19T01:02:16;14.90;;;7.40;;
77234;SDS011;66253;50.526;14.974;2023-11-19T01:04:44;17.10;;;9.50;;
77234;SDS011;66253;50.526;14.974;2023-11-19T01:07:12;15.80;;;5.90;;
77234;SDS011;66253;50.526;14.974;2023-11-19T01:09:41;13.40;;;6.20;;
77234;SDS011;66253;50.526;14.974;2023-11-19T01:12:09;11.80;;;5.60;;
77234;SDS011;66253;50.526;14.974;2023-11-19T01:14:37;13.50;;;5.90;;
77234;SDS011;66253;50.526;14.974;2023-11-19T01:17:06;13.30;;;6.30;;
77234;SDS011;66253;50.526;14.974;2023-11-19T01:19:34;12.50;;;6.20;;
77234;SDS011;66253;50.526;14.974;2023-11-19T01:22:02;11.70;;;5.50;;
77234;SDS011;66253;50.526;14.974;2023-11-19T01:24:31;12.50;;;6.30;;
77234;SDS011;66253;50.526;14.974;2023-11-19T01:26:59;11.40;;;5.70;;
77234;SDS011;66253;50.526;14.974;2023-11-19T01:29:27;10.90;;;5.90;;
77234;SDS011;66253;50.526;14.974;2023-11-19T01:31:55;9.20;;;4.60;;
77234;SDS011;66253;50.526;14.974;2023-11-19T01:34:23;10.50;;;5.50;;
77234;SDS011;66253;50.526;14.974;2023-11-19T01:36:52;11.80;;;6.10;;
77234;SDS011;66253;50.526;14.974;2023-11-19T01:39:20;11.50;;;5.50;;
77234;SDS011;66253;50.526;14.974;2023-11-19T01:41:48;14.20;;;6.40;;
77234;SDS011;66253;50.526;14.974;2023-11-19T01:44:16;12.70;;;5.60;;
77234;SDS011;66253;50.526;14.974;2023-11-19T01:46:45;11.60;;;6.10;;
77234;SDS011;66253;50.526;14.974;2023-11-19T01:49:15;11.70;;;5.50;;
77234;SDS011;66253;50.526;14.974;2023-11-19T01:51:43;14.40;;;6.60;;
77234;SDS011;66253;50.526;14.974;2023-11-19T01:54:13;11.80;;;6.00;;
77234;SDS011;66253;50.526;14.974;2023-11-19T01:56:42;11.30;;;5.20;;
77234;SDS011;66253;50.526;14.974;2023-11-19T01:59:11;13.30;;;5.40;;
77234;SDS011;66253;50.526;14.974;2023-11-19T02:01:41;10.60;;;4.90;;
77234;SDS011;66253;50.526;14.974;2023-11-19T02:04:14;11.30;;;5.80;;
77234;SDS011;66253;50.526;14.974;2023-11-19T02:06:45;13.80;;;6.50;;
77234;SDS011;66253;50.526;14.974;2023-11-19T02:09:17;11.90;;;5.70;;
77234;SDS011;66253;50.526;14.974;2023-11-19T02:11:46;13.10;;;5.70;;
77234;SDS011;66253;50.526;14.974;2023-11-19T02:14:15;13.10;;;6.40;;
77234;SDS011;66253;50.526;14.974;2023-11-19T02:16:44;11.90;;;5.60;;
77234;SDS011;66253;50.526;14.974;2023-11-19T02:19:12;10.60;;;5.40;;
77234;SDS011;66253;50.526;14.974;2023-11-19T02:21:44;11.30;;;5.80;;
77234;SDS011;66253;50.526;14.974;2023-11-19T02:24:14;12.10;;;5.40;;
77234;SDS011;66253;50.526;14.974;2023-11-19T02:26:47;12.20;;;5.30;;
77234;SDS011;66253;50.526;14.974;2023-11-19T02:29:28;11.90;;;5.30;;
77234;SDS011;66253;50.526;14.974;2023-11-19T02:32:01;11.60;;;6.20;;
77234;SDS011;66253;50.526;14.974;2023-11-19T02:34:32;12.30;;;5.80;;
77234;SDS011;66253;50.526;14.974;2023-11-19T02:37:01;12.50;;;6.30;;
77234;SDS011;66253;50.526;14.974;2023-11-19T02:39:30;11.20;;;5.30;;
77234;SDS011;66253;50.526;14.974;2023-11-19T02:41:59;15.20;;;5.80;;
77234;SDS011;66253;50.526;14.974;2023-11-19T02:44:29;11.30;;;5.40;;
77234;SDS011;66253;50.526;14.974;2023-11-19T02:46:58;13.10;;;6.20;;
77234;SDS011;66253;50.526;14.974;2023-11-19T02:49:29;11.90;;;5.50;;
77234;SDS011;66253;50.526;14.974;2023-11-19T02:51:58;13.20;;;6.60;;
77234;SDS011;66253;50.526;14.974;2023-11-19T02:54:29;14.00;;;6.20;;
77234;SDS011;66253;50.526;14.974;2023-11-19T02:56:58;13.20;;;6.60;;
77234;SDS011;66253;50.526;14.974;2023-11-19T02:59:27;13.60;;;6.30;;
77234;SDS011;66253;50.526;14.974;2023-11-19T03:01:56;12.30;;;6.30;;
77234;SDS011;66253;50.526;14.974;2023-11-19T03:04:25;15.20;;;6.70;;
77234;SDS011;66253;50.526;14.974;2023-11-19T03:06:54;11.80;;;5.80;;
77234;SDS011;66253;50.526;14.974;2023-11-19T03:09:23;12.60;;;5.70;;
77234;SDS011;66253;50.526;14.974;2023-11-19T03:11:54;14.30;;;6.20;;
77234;SDS011;66253;50.526;14.974;2023-11-19T03:14:25;14.10;;;6.20;;
77234;SDS011;66253;50.526;14.974;2023-11-19T03:16:54;11.20;;;5.30;;
77234;SDS011;66253;50.526;14.974;2023-11-19T03:19:23;12.00;;;5.50;;
77234;SDS011;66253;50.526;14.974;2023-11-19T03:21:51;14.40;;;6.40;;
77234;SDS011;66253;50.526;14.974;2023-11-19T03:24:20;11.80;;;5.40;;
77234;SDS011;66253;50.526;14.974;2023-11-19T03:26:49;12.60;;;5.60;;
77234;SDS011;66253;50.526;14.974;2023-11-19T03:29:18;13.10;;;6.00;;
77234;SDS011;66253;50.526;14.974;2023-11-19T03:31:46;13.20;;;6.90;;
77234;SDS011;66253;50.526;14.974;2023-11-19T03:34:15;12.90;;;6.20;;
77234;SDS011;66253;50.526;14.974;2023-11-19T03:36:43;17.70;;;7.00;;
77234;SDS011;66253;50.526;14.974;2023-11-19T03:39:13;14.00;;;7.00;;
77234;SDS011;66253;50.526;14.974;2023-11-19T03:41:42;11.70;;;5.60;;
77234;SDS011;66253;50.526;14.974;2023-11-19T03:44:13;12.00;;;5.30;;
77234;SDS011;66253;50.526;14.974;2023-11-19T03:46:42;13.50;;;6.10;;
77234;SDS011;66253;50.526;14.974;2023-11-19T03:49:11;17.70;;;7.00;;
77234;SDS011;66253;50.526;14.974;2023-11-19T03:51:39;13.80;;;6.90;;
77234;SDS011;66253;50.526;14.974;2023-11-19T03:54:08;11.20;;;5.70;;
77234;SDS011;66253;50.526;14.974;2023-11-19T03:56:36;15.40;;;7.10;;
77234;SDS011;66253;50.526;14.974;2023-11-19T03:59:04;13.00;;;5.70;;
77234;SDS011;66253;50.526;14.974;2023-11-19T04:01:32;14.20;;;7.00;;
77234;SDS011;66253;50.526;14.974;2023-11-19T04:04:01;13.90;;;6.80;;
77234;SDS011;66253;50.526;14.974;2023-11-19T04:06:29;13.20;;;6.30;;
77234;SDS011;66253;50.526;14.974;2023-11-19T04:08:57;12.30;;;5.80;;
77234;SDS011;66253;50.526;14.974;2023-11-19T04:11:25;13.60;;;6.60;;
77234;SDS011;66253;50.526;14.974;2023-11-19T04:13:54;13.40;;;6.60;;
77234;SDS011;66253;50.526;14.974;2023-11-19T04:16:26;13.00;;;5.50;;
77234;SDS011;66253;50.526;14.974;2023-11-19T04:18:54;12.80;;;6.00;;
77234;SDS011;66253;50.526;14.974;2023-11-19T04:21:23;15.60;;;7.90;;
77234;SDS011;66253;50.526;14.974;2023-11-19T04:23:51;11.80;;;5.20;;
77234;SDS011;66253;50.526;14.974;2023-11-19T04:26:19;13.50;;;7.20;;
77234;SDS011;66253;50.526;14.974;2023-11-19T04:28:48;11.80;;;6.10;;
77234;SDS011;66253;50.526;14.974;2023-11-19T04:31:16;16.60;;;6.70;;
77234;SDS011;66253;50.526;14.974;2023-11-19T04:33:44;11.00;;;5.00;;
77234;SDS011;66253;50.526;14.974;2023-11-19T04:36:13;10.60;;;5.40;;
77234;SDS011;66253;50.526;14.974;2023-11-19T04:38:44;10.60;;;5.10;;
77234;SDS011;66253;50.526;14.974;2023-11-19T04:41:13;12.40;;;5.90;;
77234;SDS011;66253;50.526;14.974;2023-11-19T04:43:41;11.00;;;5.20;;
77234;SDS011;66253;50.526;14.974;2023-11-19T04:46:10;12.30;;;5.90;;
77234;SDS011;66253;50.526;14.974;2023-11-19T04:48:38;14.60;;;6.20;;
77234;SDS011;66253;50.526;14.974;2023-11-19T04:51:07;14.60;;;6.30;;
77234;SDS011;66253;50.526;14.974;2023-11-19T04:53:35;10.80;;;6.50;;
77234;SDS011;66253;50.526;14.974;2023-11-19T04:56:08;11.70;;;6.00;;
77234;SDS011;66253;50.526;14.974;2023-11-19T04:58:37;9.20;;;4.60;;
77234;SDS011;66253;50.526;14.974;2023-11-19T05:01:06;9.80;;;4.90;;
77234;SDS011;66253;50.526;14.974;2023-11-19T05:03:39;10.10;;;4.60;;
77234;SDS011;66253;50.526;14.974;2023-11-19T05:06:08;10.80;;;4.50;;
77234;SDS011;66253;50.526;14.974;2023-11-19T05:08:36;11.90;;;4.80;;
77234;SDS011;66253;50.526;14.974;2023-11-19T05:11:05;9.70;;;4.90;;
77234;SDS011;66253;50.526;14.974;2023-11-19T05:13:33;9.60;;;4.60;;
77234;SDS011;66253;50.526;14.974;2023-11-19T05:16:01;9.30;;;4.50;;
77234;SDS011;66253;50.526;14.974;2023-11-19T05:18:30;11.40;;;6.10;;
77234;SDS011;66253;50.526;14.974;2023-11-19T05:20:58;12.50;;;4.90;;
77234;SDS011;66253;50.526;14.974;2023-11-19T05:23:27;10.90;;;5.00;;
77234;SDS011;66253;50.526;14.974;2023-11-19T05:25:55;11.80;;;4.70;;
77234;SDS011;66253;50.526;14.974;2023-11-19T05:28:23;10.10;;;5.00;;
77234;SDS011;66253;50.526;14.974;2023-11-19T05:30:51;11.20;;;5.60;;
77234;SDS011;66253;50.526;14.974;2023-11-19T05:33:20;8.90;;;4.00;;
77234;SDS011;66253;50.526;14.974;2023-11-19T05:35:49;9.50;;;4.60;;
77234;SDS011;66253;50.526;14.974;2023-11-19T05:38:17;9.70;;;4.10;;
77234;SDS011;66253;50.526;14.974;2023-11-19T05:40:46;8.40;;;4.10;;
77234;SDS011;66253;50.526;14.974;2023-11-19T05:43:14;10.00;;;4.40;;
77234;SDS011;66253;50.526;14.974;2023-11-19T05:45:43;8.00;;;3.80;;
77234;SDS011;66253;50.526;14.974;2023-11-19T05:48:11;9.00;;;4.20;;
77234;SDS011;66253;50.526;14.974;2023-11-19T05:50:39;7.70;;;3.80;;
77234;SDS011;66253;50.526;14.974;2023-11-19T05:53:07;7.60;;;3.70;;
77234;SDS011;66253;50.526;14.974;2023-11-19T05:55:36;10.50;;;5.10;;
77234;SDS011;66253;50.526;14.974;2023-11-19T05:58:04;9.80;;;4.60;;
77234;SDS011;66253;50.526;14.974;2023-11-19T06:00:32;9.20;;;3.90;;
77234;SDS011;66253;50.526;14.974;2023-11-19T06:03:01;8.80;;;3.80;;
77234;SDS011;66253;50.526;14.974;2023-11-19T06:05:29;7.20;;;3.60;;
77234;SDS011;66253;50.526;14.974;2023-11-19T06:07:57;8.30;;;4.10;;
77234;SDS011;66253;50.526;14.974;2023-11-19T06:10:25;8.90;;;3.90;;
77234;SDS011;66253;50.526;14.974;2023-11-19T06:12:54;8.70;;;4.20;;
77234;SDS011;66253;50.526;14.974;2023-11-19T06:15:22;8.70;;;4.10;;
77234;SDS011;66253;50.526;14.974;2023-11-19T06:17:50;9.40;;;4.40;;
77234;SDS011;66253;50.526;14.974;2023-11-19T06:20:18;9.80;;;4.10;;
77234;SDS011;66253;50.526;14.974;2023-11-19T06:22:47;8.60;;;4.30;;
77234;SDS011;66253;50.526;14.974;2023-11-19T06:25:15;10.10;;;4.40;;
77234;SDS011;66253;50.526;14.974;2023-11-19T06:27:43;8.70;;;4.10;;
77234;SDS011;66253;50.526;14.974;2023-11-19T06:30:12;8.70;;;4.10;;
77234;SDS011;66253;50.526;14.974;2023-11-19T06:32:40;10.80;;;5.30;;
77234;SDS011;66253;50.526;14.974;2023-11-19T06:35:09;8.40;;;4.60;;
77234;SDS011;66253;50.526;14.974;2023-11-19T06:37:39;9.90;;;4.80;;
77234;SDS011;66253;50.526;14.974;2023-11-19T06:40:08;8.90;;;4.20;;
77234;SDS011;66253;50.526;14.974;2023-11-19T06:42:37;8.60;;;4.00;;
77234;SDS011;66253;50.526;14.974;2023-11-19T06:45:05;7.90;;;3.70;;
77234;SDS011;66253;50.526;14.974;2023-11-19T06:47:34;8.90;;;4.50;;
77234;SDS011;66253;50.526;14.974;2023-11-19T06:50:03;9.00;;;4.60;;
77234;SDS011;66253;50.526;14.974;2023-11-19T06:52:32;8.70;;;4.20;;
77234;SDS011;66253;50.526;14.974;2023-11-19T06:55:01;10.40;;;4.80;;
77234;SDS011;66253;50.526;14.974;2023-11-19T06:57:30;9.00;;;4.50;;
77234;SDS011;66253;50.526;14.974;2023-11-19T06:59:58;8.70;;;4.50;;
77234;SDS011;66253;50.526;14.974;2023-11-19T07:02:26;8.30;;;4.00;;
77234;SDS011;66253;50.526;14.974;2023-11-19T07:04:55;6.50;;;2.60;;
77234;SDS011;66253;50.526;14.974;2023-11-19T07:07:23;7.50;;;3.10;;
77234;SDS011;66253;50.526;14.974;2023-11-19T07:09:51;8.10;;;3.60;;
77234;SDS011;66253;50.526;14.974;2023-11-19T07:12:20;7.50;;;4.20;;
77234;SDS011;66253;50.526;14.974;2023-11-19T07:14:49;8.30;;;4.00;;
77234;SDS011;66253;50.526;14.974;2023-11-19T07:17:18;5.70;;;2.70;;
77234;SDS011;66253;50.526;14.974;2023-11-19T07:19:46;7.70;;;3.60;;
77234;SDS011;66253;50.526;14.974;2023-11-19T07:22:15;7.10;;;3.70;;
77234;SDS011;66253;50.526;14.974;2023-11-19T07:24:44;8.20;;;4.00;;
77234;SDS011;66253;50.526;14.974;2023-11-19T07:27:12;9.00;;;4.10;;
77234;SDS011;66253;50.526;14.974;2023-11-19T07:29:40;8.90;;;4.80;;
77234;SDS011;66253;50.526;14.974;2023-11-19T07:32:09;10.70;;;4.70;;
77234;SDS011;66253;50.526;14.974;2023-11-19T07:34:37;10.40;;;5.40;;
77234;SDS011;66253;50.526;14.974;2023-11-19T07:37:06;9.30;;;4.00;;
77234;SDS011;66253;50.526;14.974;2023-11-19T07:39:34;9.50;;;4.50;;
77234;SDS011;66253;50.526;14.974;2023-11-19T07:42:03;9.20;;;4.20;;
77234;SDS011;66253;50.526;14.974;2023-11-19T07:44:31;7.60;;;3.60;;
77234;SDS011;66253;50.526;14.974;2023-11-19T07:47:00;9.80;;;4.20;;
77234;SDS011;66253;50.526;14.974;2023-11-19T07:49:28;9.30;;;4.50;;
77234;SDS011;66253;50.526;14.974;2023-11-19T07:51:56;10.00;;;5.10;;
77234;SDS011;66253;50.526;14.974;2023-11-19T07:54:25;8.80;;;5.00;;
77234;SDS011;66253;50.526;14.974;2023-11-19T07:56:53;9.70;;;5.10;;
77234;SDS011;66253;50.526;14.974;2023-11-19T07:59:21;10.00;;;5.30;;
77234;SDS011;66253;50.526;14.974;2023-11-19T08:01:49;10.80;;;5.60;;
77234;SDS011;66253;50.526;14.974;2023-11-19T08:04:18;8.40;;;4.30;;
77234;SDS011;66253;50.526;14.974;2023-11-19T08:06:46;7.60;;;4.10;;
77234;SDS011;66253;50.526;14.974;2023-11-19T08:09:14;8.50;;;4.10;;
77234;SDS011;66253;50.526;14.974;2023-11-19T08:11:42;8.30;;;4.00;;
77234;SDS011;66253;50.526;14.974;2023-11-19T08:14:11;8.70;;;3.80;;
77234;SDS011;66253;50.526;14.974;2023-11-19T08:16:40;8.30;;;4.00;;
77234;SDS011;66253;50.526;14.974;2023-11-19T08:19:08;8.10;;;3.80;;
77234;SDS011;66253;50.526;14.974;2023-11-19T08:21:36;8.50;;;3.60;;
77234;SDS011;66253;50.526;14.974;2023-11-19T08:24:05;7.90;;;4.30;;
77234;SDS011;66253;50.526;14.974;2023-11-19T08:26:33;7.30;;;3.50;;
77234;SDS011;66253;50.526;14.974;2023-11-19T08:29:02;10.60;;;4.40;;
77234;SDS011;66253;50.526;14.974;2023-11-19T08:31:30;8.50;;;4.40;;
77234;SDS011;66253;50.526;14.974;2023-11-19T08:33:58;7.80;;;3.60;;
77234;SDS011;66253;50.526;14.974;2023-11-19T08:36:26;8.60;;;4.70;;
77234;SDS011;66253;50.526;14.974;2023-11-19T08:38:55;8.00;;;3.70;;
77234;SDS011;66253;50.526;14.974;2023-11-19T08:41:23;8.90;;;3.70;;
77234;SDS011;66253;50.526;14.974;2023-11-19T08:43:51;7.40;;;4.00;;
77234;SDS011;66253;50.526;14.974;2023-11-19T08:46:20;7.50;;;3.70;;
77234;SDS011;66253;50.526;14.974;2023-11-19T08:48:48;7.00;;;3.50;;
77234;SDS011;66253;50.526;14.974;2023-11-19T08:51:16;8.10;;;3.30;;
77234;SDS011;66253;50.526;14.974;2023-11-19T08:53:44;8.10;;;4.80;;
77234;SDS011;66253;50.526;14.974;2023-11-19T08:56:13;9.20;;;4.30;;
77234;SDS011;66253;50.526;14.974;2023-11-19T08:58:41;12.20;;;6.00;;
77234;SDS011;66253;50.526;14.974;2023-11-19T09:01:09;10.90;;;5.50;;
77234;SDS011;66253;50.526;14.974;2023-11-19T09:03:37;12.30;;;6.30;;
77234;SDS011;66253;50.526;14.974;2023-11-19T09:06:06;10.40;;;5.10;;
77234;SDS011;66253;50.526;14.974;2023-11-19T09:08:35;9.30;;;4.20;;
77234;SDS011;66253;50.526;14.974;2023-11-19T09:11:07;6.20;;;3.00;;
77234;SDS011;66253;50.526;14.974;2023-11-19T09:13:36;8.50;;;4.80;;
77234;SDS011;66253;50.526;14.974;2023-11-19T09:16:04;7.60;;;3.10;;
77234;SDS011;66253;50.526;14.974;2023-11-19T09:18:33;8.30;;;3.50;;
77234;SDS011;66253;50.526;14.974;2023-11-19T09:21:01;6.30;;;3.50;;
77234;SDS011;66253;50.526;14.974;2023-11-19T09:23:30;7.30;;;3.80;;
77234;SDS011;66253;50.526;14.974;2023-11-19T09:25:58;7.10;;;3.30;;
77234;SDS011;66253;50.526;14.974;2023-11-19T09:28:27;6.60;;;3.20;;
77234;SDS011;66253;50.526;14.974;2023-11-19T09:30:55;6.70;;;3.20;;
77234;SDS011;66253;50.526;14.974;2023-11-19T09:33:23;7.10;;;3.60;;
77234;SDS011;66253;50.526;14.974;2023-11-19T09:35:52;5.50;;;2.80;;
77234;SDS011;66253;50.526;14.974;2023-11-19T09:38:20;6.90;;;3.40;;
77234;SDS011;66253;50.526;14.974;2023-11-19T09:40:48;7.00;;;3.40;;
77234;SDS011;66253;50.526;14.974;2023-11-19T09:43:16;9.20;;;4.20;;
77234;SDS011;66253;50.526;14.974;2023-11-19T09:45:47;11.90;;;6.50;;
77234;SDS011;66253;50.526;14.974;2023-11-19T09:48:17;9.00;;;4.40;;
77234;SDS011;66253;50.526;14.974;2023-11-19T09:50:46;9.50;;;4.70;;
77234;SDS011;66253;50.526;14.974;2023-11-19T09:53:15;9.20;;;4.50;;
77234;SDS011;66253;50.526;14.974;2023-11-19T09:55:43;9.20;;;4.50;;
77234;SDS011;66253;50.526;14.974;2023-11-19T09:58:14;7.00;;;3.60;;
77234;SDS011;66253;50.526;14.974;2023-11-19T10:00:43;7.40;;;3.00;;
77234;SDS011;66253;50.526;14.974;2023-11-19T10:03:11;7.70;;;4.00;;
77234;SDS011;66253;50.526;14.974;2023-11-19T10:05:40;8.40;;;4.00;;
77234;SDS011;66253;50.526;14.974;2023-11-19T10:08:08;8.70;;;4.50;;
77234;SDS011;66253;50.526;14.974;2023-11-19T10:10:37;10.10;;;5.00;;
77234;SDS011;66253;50.526;14.974;2023-11-19T10:13:05;10.10;;;4.50;;
77234;SDS011;66253;50.526;14.974;2023-11-19T10:15:35;8.50;;;3.80;;
77234;SDS011;66253;50.526;14.974;2023-11-19T10:18:04;11.60;;;4.30;;
77234;SDS011;66253;50.526;14.974;2023-11-19T10:20:36;7.60;;;3.50;;
77234;SDS011;66253;50.526;14.974;2023-11-19T10:23:07;8.70;;;3.70;;
77234;SDS011;66253;50.526;14.974;2023-11-19T10:25:35;7.00;;;4.10;;
77234;SDS011;66253;50.526;14.974;2023-11-19T10:28:04;6.40;;;3.30;;
77234;SDS011;66253;50.526;14.974;2023-11-19T10:30:32;6.70;;;2.90;;
77234;SDS011;66253;50.526;14.974;2023-11-19T10:33:04;6.60;;;3.20;;
77234;SDS011;66253;50.526;14.974;2023-11-19T10:35:33;7.60;;;3.90;;
77234;SDS011;66253;50.526;14.974;2023-11-19T10:38:02;7.10;;;3.30;;
77234;SDS011;66253;50.526;14.974;2023-11-19T10:40:41;9.10;;;5.10;;
77234;SDS011;66253;50.526;14.974;2023-11-19T10:43:09;8.40;;;3.70;;
77234;SDS011;66253;50.526;14.974;2023-11-19T10:45:39;6.40;;;3.00;;
77234;SDS011;66253;50.526;14.974;2023-11-19T10:48:07;37.00;;;17.70;;
77234;SDS011;66253;50.526;14.974;2023-11-19T10:50:36;14.70;;;7.30;;
77234;SDS011;66253;50.526;14.974;2023-11-19T10:53:05;35.40;;;16.40;;
77234;SDS011;66253;50.526;14.974;2023-11-19T10:55:35;18.00;;;8.70;;
77234;SDS011;66253;50.526;14.974;2023-11-19T10:58:04;9.00;;;4.90;;
77234;SDS011;66253;50.526;14.974;2023-11-19T11:00:37;6.20;;;3.70;;
77234;SDS011;66253;50.526;14.974;2023-11-19T11:03:11;5.70;;;2.40;;
77234;SDS011;66253;50.526;14.974;2023-11-19T11:05:42;9.60;;;5.40;;
77234;SDS011;66253;50.526;14.974;2023-11-19T11:08:12;9.50;;;4.80;;
77234;SDS011;66253;50.526;14.974;2023-11-19T11:10:42;6.90;;;3.30;;
77234;SDS011;66253;50.526;14.974;2023-11-19T11:13:11;7.60;;;3.60;;
77234;SDS011;66253;50.526;14.974;2023-11-19T11:15:42;10.40;;;5.20;;
77234;SDS011;66253;50.526;14.974;2023-11-19T11:18:10;8.50;;;4.20;;
77234;SDS011;66253;50.526;14.974;2023-11-19T11:20:39;8.80;;;4.30;;
77234;SDS011;66253;50.526;14.974;2023-11-19T11:23:22;7.70;;;3.50;;
77234;SDS011;66253;50.526;14.974;2023-11-19T11:26:06;8.10;;;3.40;;
77234;SDS011;66253;50.526;14.974;2023-11-19T11:28:52;5.70;;;2.90;;
77234;SDS011;66253;50.526;14.974;2023-11-19T11:31:29;5.60;;;2.30;;
77234;SDS011;66253;50.526;14.974;2023-11-19T11:34:08;5.20;;;2.60;;
77234;SDS011;66253;50.526;14.974;2023-11-19T11:36:53;6.80;;;3.80;;
77234;SDS011;66253;50.526;14.974;2023-11-19T11:39:33;12.10;;;6.50;;
77234;SDS011;66253;50.526;14.974;2023-11-19T11:45:02;7.00;;;3.90;;
77234;SDS011;66253;50.526;14.974;2023-11-19T11:50:15;8.40;;;5.40;;
77234;SDS011;66253;50.526;14.974;2023-11-19T11:55:53;5.70;;;2.90;;
77234;SDS011;66253;50.526;14.974;2023-11-19T11:58:25;7.00;;;3.80;;
77234;SDS011;66253;50.526;14.974;2023-11-19T12:00:56;6.50;;;3.70;;
77234;SDS011;66253;50.526;14.974;2023-11-19T12:03:26;6.10;;;3.30;;
77234;SDS011;66253;50.526;14.974;2023-11-19T12:08:25;9.50;;;5.10;;
77234;SDS011;66253;50.526;14.974;2023-11-19T12:10:55;8.40;;;4.90;;
77234;SDS011;66253;50.526;14.974;2023-11-19T12:13:26;10.00;;;5.20;;
77234;SDS011;66253;50.526;14.974;2023-11-19T12:16:12;10.30;;;4.40;;
77234;SDS011;66253;50.526;14.974;2023-11-19T12:18:41;16.80;;;6.90;;
77234;SDS011;66253;50.526;14.974;2023-11-19T12:21:10;11.20;;;6.40;;
77234;SDS011;66253;50.526;14.974;2023-11-19T12:23:53;11.90;;;5.20;;
77234;SDS011;66253;50.526;14.974;2023-11-19T12:26:37;14.30;;;7.20;;
77234;SDS011;66253;50.526;14.974;2023-11-19T12:29:06;14.80;;;7.60;;
77234;SDS011;66253;50.526;14.974;2023-11-19T12:31:34;15.70;;;8.90;;
77234;SDS011;66253;50.526;14.974;2023-11-19T12:34:09;15.70;;;8.20;;
77234;SDS011;66253;50.526;14.974;2023-11-19T12:36:37;13.50;;;6.10;;
77234;SDS011;66253;50.526;14.974;2023-11-19T12:39:07;13.00;;;5.90;;
77234;SDS011;66253;50.526;14.974;2023-11-19T12:44:21;13.80;;;7.70;;
77234;SDS011;66253;50.526;14.974;2023-11-19T12:47:03;17.30;;;9.20;;
77234;SDS011;66253;50.526;14.974;2023-11-19T12:49:32;14.10;;;7.30;;
77234;SDS011;66253;50.526;14.974;2023-11-19T12:52:00;11.90;;;5.60;;
77234;SDS011;66253;50.526;14.974;2023-11-19T12:54:37;9.90;;;4.80;;
77234;SDS011;66253;50.526;14.974;2023-11-19T12:57:05;10.50;;;5.10;;
77234;SDS011;66253;50.526;14.974;2023-11-19T12:59:34;21.10;;;8.30;;
77234;SDS011;66253;50.526;14.974;2023-11-19T13:02:02;13.40;;;7.00;;
77234;SDS011;66253;50.526;14.974;2023-11-19T13:04:30;12.50;;;6.60;;
77234;SDS011;66253;50.526;14.974;2023-11-19T13:06:59;13.70;;;6.50;;
77234;SDS011;66253;50.526;14.974;2023-11-19T13:09:28;9.60;;;5.20;;
77234;SDS011;66253;50.526;14.974;2023-11-19T13:11:57;10.70;;;5.60;;
77234;SDS011;66253;50.526;14.974;2023-11-19T13:14:35;8.60;;;4.30;;
77234;SDS011;66253;50.526;14.974;2023-11-19T13:17:04;11.60;;;5.60;;
77234;SDS011;66253;50.526;14.974;2023-11-19T13:19:32;11.70;;;5.60;;
77234;SDS011;66253;50.526;14.974;2023-11-19T13:22:00;11.80;;;5.40;;
77234;SDS011;66253;50.526;14.974;2023-11-19T13:24:28;13.20;;;6.00;;
77234;SDS011;66253;50.526;14.974;2023-11-19T13:26:57;11.50;;;5.00;;
77234;SDS011;66253;50.526;14.974;2023-11-19T13:29:25;12.10;;;6.80;;
77234;SDS011;66253;50.526;14.974;2023-11-19T13:31:53;12.60;;;5.70;;
77234;SDS011;66253;50.526;14.974;2023-11-19T13:34:21;12.60;;;6.50;;
77234;SDS011;66253;50.526;14.974;2023-11-19T13:36:49;14.80;;;8.40;;
77234;SDS011;66253;50.526;14.974;2023-11-19T13:39:18;14.20;;;8.50;;
77234;SDS011;66253;50.526;14.974;2023-11-19T13:41:46;14.90;;;7.80;;
77234;SDS011;66253;50.526;14.974;2023-11-19T13:44:14;23.30;;;10.20;;
77234;SDS011;66253;50.526;14.974;2023-11-19T13:46:42;15.50;;;7.90;;
77234;SDS011;66253;50.526;14.974;2023-11-19T13:49:12;13.30;;;7.50;;
77234;SDS011;66253;50.526;14.974;2023-11-19T13:51:43;12.50;;;6.70;;
77234;SDS011;66253;50.526;14.974;2023-11-19T13:54:11;13.30;;;6.50;;
77234;SDS011;66253;50.526;14.974;2023-11-19T13:56:39;9.50;;;4.90;;
77234;SDS011;66253;50.526;14.974;2023-11-19T13:59:08;13.20;;;6.70;;
77234;SDS011;66253;50.526;14.974;2023-11-19T14:01:36;18.20;;;9.60;;
77234;SDS011;66253;50.526;14.974;2023-11-19T14:04:05;9.30;;;4.80;;
77234;SDS011;66253;50.526;14.974;2023-11-19T14:06:33;11.40;;;6.00;;
77234;SDS011;66253;50.526;14.974;2023-11-19T14:09:01;11.80;;;6.20;;
77234;SDS011;66253;50.526;14.974;2023-11-19T14:11:29;14.50;;;9.00;;
77234;SDS011;66253;50.526;14.974;2023-11-19T14:13:58;10.10;;;5.10;;
77234;SDS011;66253;50.526;14.974;2023-11-19T14:16:27;10.70;;;4.80;;
77234;SDS011;66253;50.526;14.974;2023-11-19T14:18:55;10.50;;;5.40;;
77234;SDS011;66253;50.526;14.974;2023-11-19T14:21:24;10.20;;;5.10;;
77234;SDS011;66253;50.526;14.974;2023-11-19T14:23:52;11.70;;;5.20;;
77234;SDS011;66253;50.526;14.974;2023-11-19T14:26:20;19.80;;;8.80;;
77234;SDS011;66253;50.526;14.974;2023-11-19T14:28:48;12.20;;;6.40;;
77234;SDS011;66253;50.526;14.974;2023-11-19T14:31:16;13.10;;;6.50;;
77234;SDS011;66253;50.526;14.974;2023-11-19T14:33:45;25.30;;;13.90;;
77234;SDS011;66253;50.526;14.974;2023-11-19T14:36:13;18.60;;;8.70;;
77234;SDS011;66253;50.526;14.974;2023-11-19T14:38:41;66.30;;;21.70;;
77234;SDS011;66253;50.526;14.974;2023-11-19T14:41:09;32.70;;;12.10;;
77234;SDS011;66253;50.526;14.974;2023-11-19T14:43:38;30.10;;;11.70;;
77234;SDS011;66253;50.526;14.974;2023-11-19T14:46:07;34.70;;;13.80;;
77234;SDS011;66253;50.526;14.974;2023-11-19T14:48:35;30.00;;;13.00;;
77234;SDS011;66253;50.526;14.974;2023-11-19T14:51:03;22.80;;;10.40;;